sensor_id;sensor_type;location;lat;lon;timestamp;P1;durP1;ratioP1;P2;durP2;ratioP2
75542;SDS011;64129;53.508;10.476;2022-11-18T00:00:51;16.75;;;8.73;;
75542;SDS011;64129;53.508;10.476;2022-11-18T00:03:19;13.55;;;9.02;;
75542;SDS011;64129;53.508;10.476;2022-11-18T00:05:55;19.15;;;10.93;;
75542;SDS011;64129;53.508;10.476;2022-11-18T00:08:23;18.08;;;8.32;;
75542;SDS011;64129;53.508;10.476;2022-11-18T00:13:17;17.17;;;10.15;;
75542;SDS011;64129;53.508;10.476;2022-11-18T00:16:03;20.27;;;8.23;;
75542;SDS011;64129;53.508;10.476;2022-11-18T00:18:35;17.45;;;8.48;;
75542;SDS011;64129;53.508;10.476;2022-11-18T00:21:07;19.15;;;11.75;;
75542;SDS011;64129;53.508;10.476;2022-11-18T00:23:36;11.68;;;7.57;;
75542;SDS011;64129;53.508;10.476;2022-11-18T00:26:03;20.92;;;11.45;;
75542;SDS011;64129;53.508;10.476;2022-11-18T00:28:31;20.38;;;10.85;;
75542;SDS011;64129;53.508;10.476;2022-11-18T00:31:11;24.02;;;11.40;;
75542;SDS011;64129;53.508;10.476;2022-11-18T00:33:39;22.58;;;11.20;;
75542;SDS011;64129;53.508;10.476;2022-11-18T00:36:06;23.50;;;12.23;;
75542;SDS011;64129;53.508;10.476;2022-11-18T00:38:34;22.38;;;11.55;;
75542;SDS011;64129;53.508;10.476;2022-11-18T00:41:01;14.25;;;8.38;;
75542;SDS011;64129;53.508;10.476;2022-11-18T00:43:33;20.27;;;10.73;;
75542;SDS011;64129;53.508;10.476;2022-11-18T00:46:00;22.13;;;11.65;;
75542;SDS011;64129;53.508;10.476;2022-11-18T00:48:28;25.30;;;13.77;;
75542;SDS011;64129;53.508;10.476;2022-11-18T00:50:55;24.88;;;13.00;;
75542;SDS011;64129;53.508;10.476;2022-11-18T00:53:23;22.98;;;11.82;;
75542;SDS011;64129;53.508;10.476;2022-11-18T00:55:51;21.80;;;12.57;;
75542;SDS011;64129;53.508;10.476;2022-11-18T00:58:18;24.40;;;13.07;;
75542;SDS011;64129;53.508;10.476;2022-11-18T01:00:46;24.25;;;12.15;;
75542;SDS011;64129;53.508;10.476;2022-11-18T01:03:19;22.02;;;10.70;;
75542;SDS011;64129;53.508;10.476;2022-11-18T01:05:45;21.60;;;9.48;;
75542;SDS011;64129;53.508;10.476;2022-11-18T01:08:13;20.75;;;10.60;;
75542;SDS011;64129;53.508;10.476;2022-11-18T01:10:40;20.02;;;10.80;;
75542;SDS011;64129;53.508;10.476;2022-11-18T01:13:10;18.55;;;10.00;;
75542;SDS011;64129;53.508;10.476;2022-11-18T01:18:26;18.75;;;10.02;;
75542;SDS011;64129;53.508;10.476;2022-11-18T01:20:59;19.08;;;11.75;;
75542;SDS011;64129;53.508;10.476;2022-11-18T01:23:27;26.63;;;13.43;;
75542;SDS011;64129;53.508;10.476;2022-11-18T01:25:54;18.25;;;9.98;;
75542;SDS011;64129;53.508;10.476;2022-11-18T01:28:20;20.25;;;11.32;;
75542;SDS011;64129;53.508;10.476;2022-11-18T01:30:49;16.98;;;10.57;;
75542;SDS011;64129;53.508;10.476;2022-11-18T01:33:15;20.35;;;11.05;;
75542;SDS011;64129;53.508;10.476;2022-11-18T01:35:42;21.25;;;12.70;;
75542;SDS011;64129;53.508;10.476;2022-11-18T01:38:10;22.17;;;11.90;;
75542;SDS011;64129;53.508;10.476;2022-11-18T01:40:37;23.02;;;12.77;;
75542;SDS011;64129;53.508;10.476;2022-11-18T01:43:08;20.58;;;11.25;;
75542;SDS011;64129;53.508;10.476;2022-11-18T01:45:39;24.85;;;12.70;;
75542;SDS011;64129;53.508;10.476;2022-11-18T01:48:09;24.73;;;12.32;;
75542;SDS011;64129;53.508;10.476;2022-11-18T01:50:44;23.17;;;12.63;;
75542;SDS011;64129;53.508;10.476;2022-11-18T01:53:15;27.10;;;14.13;;
75542;SDS011;64129;53.508;10.476;2022-11-18T01:55:47;25.58;;;13.20;;
75542;SDS011;64129;53.508;10.476;2022-11-18T01:58:19;25.38;;;13.02;;
75542;SDS011;64129;53.508;10.476;2022-11-18T02:00:48;23.15;;;12.45;;
75542;SDS011;64129;53.508;10.476;2022-11-18T02:03:15;10.30;;;6.85;;
75542;SDS011;64129;53.508;10.476;2022-11-18T02:05:42;22.50;;;12.68;;
75542;SDS011;64129;53.508;10.476;2022-11-18T02:08:12;16.23;;;9.13;;
75542;SDS011;64129;53.508;10.476;2022-11-18T02:10:39;21.98;;;10.63;;
75542;SDS011;64129;53.508;10.476;2022-11-18T02:13:06;13.77;;;7.63;;
75542;SDS011;64129;53.508;10.476;2022-11-18T02:18:13;17.20;;;10.02;;
75542;SDS011;64129;53.508;10.476;2022-11-18T02:20:42;14.93;;;8.95;;
75542;SDS011;64129;53.508;10.476;2022-11-18T02:29:09;16.58;;;8.85;;
75542;SDS011;64129;53.508;10.476;2022-11-18T02:31:47;21.20;;;10.93;;
75542;SDS011;64129;53.508;10.476;2022-11-18T02:34:29;15.48;;;8.93;;
75542;SDS011;64129;53.508;10.476;2022-11-18T02:39:51;16.17;;;9.27;;
75542;SDS011;64129;53.508;10.476;2022-11-18T02:42:23;19.33;;;11.27;;
75542;SDS011;64129;53.508;10.476;2022-11-18T02:44:56;21.17;;;11.70;;
75542;SDS011;64129;53.508;10.476;2022-11-18T02:47:27;17.08;;;10.07;;
75542;SDS011;64129;53.508;10.476;2022-11-18T02:50:01;21.33;;;11.90;;
75542;SDS011;64129;53.508;10.476;2022-11-18T02:52:31;20.40;;;11.70;;
75542;SDS011;64129;53.508;10.476;2022-11-18T02:55:00;21.58;;;12.20;;
75542;SDS011;64129;53.508;10.476;2022-11-18T02:57:28;20.88;;;10.88;;
75542;SDS011;64129;53.508;10.476;2022-11-18T02:59:57;14.40;;;8.13;;
75542;SDS011;64129;53.508;10.476;2022-11-18T03:02:23;18.40;;;10.10;;
75542;SDS011;64129;53.508;10.476;2022-11-18T03:04:50;18.13;;;9.30;;
75542;SDS011;64129;53.508;10.476;2022-11-18T03:09:50;18.30;;;10.27;;
75542;SDS011;64129;53.508;10.476;2022-11-18T03:12:29;16.85;;;10.32;;
75542;SDS011;64129;53.508;10.476;2022-11-18T03:21:16;16.95;;;11.02;;
75542;SDS011;64129;53.508;10.476;2022-11-18T03:24:09;15.52;;;10.15;;
75542;SDS011;64129;53.508;10.476;2022-11-18T03:26:44;15.88;;;10.27;;
75542;SDS011;64129;53.508;10.476;2022-11-18T03:29:17;18.02;;;9.93;;
75542;SDS011;64129;53.508;10.476;2022-11-18T03:31:49;17.98;;;10.70;;
75542;SDS011;64129;53.508;10.476;2022-11-18T03:34:32;20.00;;;12.00;;
75542;SDS011;64129;53.508;10.476;2022-11-18T03:37:03;17.13;;;10.38;;
75542;SDS011;64129;53.508;10.476;2022-11-18T03:39:36;15.05;;;8.98;;
75542;SDS011;64129;53.508;10.476;2022-11-18T03:42:29;19.90;;;10.70;;
75542;SDS011;64129;53.508;10.476;2022-11-18T03:45:00;11.00;;;7.45;;
75542;SDS011;64129;53.508;10.476;2022-11-18T03:47:32;19.60;;;11.73;;
75542;SDS011;64129;53.508;10.476;2022-11-18T03:50:09;20.48;;;11.52;;
75542;SDS011;64129;53.508;10.476;2022-11-18T03:52:37;20.73;;;11.35;;
75542;SDS011;64129;53.508;10.476;2022-11-18T03:55:08;15.20;;;9.10;;
75542;SDS011;64129;53.508;10.476;2022-11-18T03:57:42;16.20;;;10.35;;
75542;SDS011;64129;53.508;10.476;2022-11-18T04:00:14;19.90;;;11.10;;
75542;SDS011;64129;53.508;10.476;2022-11-18T04:02:42;16.27;;;8.23;;
75542;SDS011;64129;53.508;10.476;2022-11-18T04:05:11;10.95;;;7.20;;
75542;SDS011;64129;53.508;10.476;2022-11-18T04:10:28;17.23;;;10.85;;
75542;SDS011;64129;53.508;10.476;2022-11-18T04:15:31;16.27;;;9.07;;
75542;SDS011;64129;53.508;10.476;2022-11-18T04:18:02;20.27;;;11.65;;
75542;SDS011;64129;53.508;10.476;2022-11-18T04:20:29;23.77;;;12.75;;
75542;SDS011;64129;53.508;10.476;2022-11-18T04:22:56;21.30;;;11.77;;
75542;SDS011;64129;53.508;10.476;2022-11-18T04:25:23;21.48;;;11.40;;
75542;SDS011;64129;53.508;10.476;2022-11-18T04:27:49;19.02;;;11.82;;
75542;SDS011;64129;53.508;10.476;2022-11-18T04:30:16;20.90;;;12.50;;
75542;SDS011;64129;53.508;10.476;2022-11-18T04:32:43;20.23;;;12.40;;
75542;SDS011;64129;53.508;10.476;2022-11-18T04:35:10;21.05;;;12.25;;
75542;SDS011;64129;53.508;10.476;2022-11-18T04:37:37;17.52;;;11.27;;
75542;SDS011;64129;53.508;10.476;2022-11-18T04:40:03;19.08;;;11.27;;
75542;SDS011;64129;53.508;10.476;2022-11-18T04:42:31;16.25;;;9.20;;
75542;SDS011;64129;53.508;10.476;2022-11-18T04:44:57;20.67;;;12.52;;
75542;SDS011;64129;53.508;10.476;2022-11-18T04:47:24;24.48;;;12.48;;
75542;SDS011;64129;53.508;10.476;2022-11-18T04:49:50;23.15;;;12.27;;
75542;SDS011;64129;53.508;10.476;2022-11-18T04:52:17;22.98;;;13.52;;
75542;SDS011;64129;53.508;10.476;2022-11-18T04:54:44;19.35;;;12.50;;
75542;SDS011;64129;53.508;10.476;2022-11-18T04:57:11;20.83;;;11.95;;
75542;SDS011;64129;53.508;10.476;2022-11-18T04:59:37;18.92;;;10.20;;
75542;SDS011;64129;53.508;10.476;2022-11-18T05:02:04;21.65;;;12.48;;
75542;SDS011;64129;53.508;10.476;2022-11-18T05:04:31;21.25;;;12.85;;
75542;SDS011;64129;53.508;10.476;2022-11-18T05:09:26;23.25;;;13.35;;
75542;SDS011;64129;53.508;10.476;2022-11-18T05:11:56;24.65;;;14.15;;
75542;SDS011;64129;53.508;10.476;2022-11-18T05:14:41;22.30;;;13.38;;
75542;SDS011;64129;53.508;10.476;2022-11-18T05:17:10;21.92;;;11.25;;
75542;SDS011;64129;53.508;10.476;2022-11-18T05:19:37;23.98;;;13.55;;
75542;SDS011;64129;53.508;10.476;2022-11-18T05:22:04;21.13;;;12.77;;
75542;SDS011;64129;53.508;10.476;2022-11-18T05:24:31;25.27;;;14.52;;
75542;SDS011;64129;53.508;10.476;2022-11-18T05:26:58;15.68;;;9.93;;
75542;SDS011;64129;53.508;10.476;2022-11-18T05:29:25;22.88;;;13.50;;
75542;SDS011;64129;53.508;10.476;2022-11-18T05:31:51;25.30;;;13.38;;
75542;SDS011;64129;53.508;10.476;2022-11-18T05:34:18;23.13;;;12.55;;
75542;SDS011;64129;53.508;10.476;2022-11-18T05:36:44;22.48;;;12.65;;
75542;SDS011;64129;53.508;10.476;2022-11-18T05:39:11;22.98;;;13.35;;
75542;SDS011;64129;53.508;10.476;2022-11-18T05:41:37;24.00;;;12.82;;
75542;SDS011;64129;53.508;10.476;2022-11-18T05:44:22;29.10;;;15.77;;
75542;SDS011;64129;53.508;10.476;2022-11-18T05:46:49;25.23;;;14.10;;
75542;SDS011;64129;53.508;10.476;2022-11-18T05:49:15;14.40;;;9.20;;
75542;SDS011;64129;53.508;10.476;2022-11-18T05:51:42;23.67;;;12.50;;
75542;SDS011;64129;53.508;10.476;2022-11-18T05:54:09;25.83;;;14.52;;
75542;SDS011;64129;53.508;10.476;2022-11-18T05:56:40;28.10;;;14.88;;
75542;SDS011;64129;53.508;10.476;2022-11-18T05:59:10;23.17;;;12.90;;
75542;SDS011;64129;53.508;10.476;2022-11-18T06:01:40;24.30;;;14.95;;
75542;SDS011;64129;53.508;10.476;2022-11-18T06:06:51;21.88;;;12.73;;
75542;SDS011;64129;53.508;10.476;2022-11-18T06:09:23;24.63;;;13.82;;
75542;SDS011;64129;53.508;10.476;2022-11-18T06:11:54;18.83;;;9.75;;
75542;SDS011;64129;53.508;10.476;2022-11-18T06:14:36;27.08;;;14.35;;
75542;SDS011;64129;53.508;10.476;2022-11-18T06:17:13;28.42;;;14.15;;
75542;SDS011;64129;53.508;10.476;2022-11-18T06:19:44;23.30;;;12.20;;
75542;SDS011;64129;53.508;10.476;2022-11-18T06:22:11;21.60;;;12.05;;
75542;SDS011;64129;53.508;10.476;2022-11-18T06:24:38;23.10;;;11.57;;
75542;SDS011;64129;53.508;10.476;2022-11-18T06:27:05;22.95;;;12.10;;
75542;SDS011;64129;53.508;10.476;2022-11-18T06:29:32;23.30;;;12.30;;
75542;SDS011;64129;53.508;10.476;2022-11-18T06:31:58;24.50;;;13.25;;
75542;SDS011;64129;53.508;10.476;2022-11-18T06:34:25;23.60;;;14.45;;
75542;SDS011;64129;53.508;10.476;2022-11-18T06:36:52;25.45;;;12.45;;
75542;SDS011;64129;53.508;10.476;2022-11-18T06:39:18;27.85;;;13.85;;
75542;SDS011;64129;53.508;10.476;2022-11-18T06:41:45;23.80;;;12.07;;
75542;SDS011;64129;53.508;10.476;2022-11-18T06:44:11;24.85;;;13.85;;
75542;SDS011;64129;53.508;10.476;2022-11-18T06:46:39;27.08;;;15.45;;
75542;SDS011;64129;53.508;10.476;2022-11-18T06:49:21;30.17;;;16.05;;
75542;SDS011;64129;53.508;10.476;2022-11-18T06:51:49;23.38;;;12.43;;
75542;SDS011;64129;53.508;10.476;2022-11-18T06:54:15;26.52;;;14.38;;
75542;SDS011;64129;53.508;10.476;2022-11-18T06:56:42;23.23;;;13.30;;
75542;SDS011;64129;53.508;10.476;2022-11-18T06:59:09;26.02;;;14.98;;
75542;SDS011;64129;53.508;10.476;2022-11-18T07:01:36;16.67;;;9.02;;
75542;SDS011;64129;53.508;10.476;2022-11-18T07:06:31;25.63;;;13.35;;
75542;SDS011;64129;53.508;10.476;2022-11-18T07:09:00;17.05;;;8.68;;
75542;SDS011;64129;53.508;10.476;2022-11-18T07:11:27;15.98;;;8.75;;
75542;SDS011;64129;53.508;10.476;2022-11-18T07:13:54;17.33;;;10.32;;
75542;SDS011;64129;53.508;10.476;2022-11-18T07:16:24;20.20;;;10.35;;
75542;SDS011;64129;53.508;10.476;2022-11-18T07:18:52;11.68;;;8.18;;
75542;SDS011;64129;53.508;10.476;2022-11-18T07:21:21;13.80;;;9.73;;
75542;SDS011;64129;53.508;10.476;2022-11-18T07:23:48;16.40;;;9.95;;
75542;SDS011;64129;53.508;10.476;2022-11-18T07:26:16;14.20;;;7.75;;
75542;SDS011;64129;53.508;10.476;2022-11-18T07:28:42;15.27;;;9.77;;
75542;SDS011;64129;53.508;10.476;2022-11-18T07:31:11;15.73;;;9.43;;
75542;SDS011;64129;53.508;10.476;2022-11-18T07:33:39;17.52;;;9.70;;
75542;SDS011;64129;53.508;10.476;2022-11-18T07:36:08;15.27;;;9.70;;
75542;SDS011;64129;53.508;10.476;2022-11-18T07:38:39;15.77;;;9.30;;
75542;SDS011;64129;53.508;10.476;2022-11-18T07:41:07;19.05;;;10.65;;
75542;SDS011;64129;53.508;10.476;2022-11-18T07:43:34;19.73;;;12.15;;
75542;SDS011;64129;53.508;10.476;2022-11-18T07:48:43;18.73;;;10.43;;
75542;SDS011;64129;53.508;10.476;2022-11-18T07:51:11;13.13;;;7.75;;
75542;SDS011;64129;53.508;10.476;2022-11-18T07:53:39;16.48;;;9.35;;
75542;SDS011;64129;53.508;10.476;2022-11-18T07:56:06;18.80;;;11.48;;
75542;SDS011;64129;53.508;10.476;2022-11-18T07:58:33;16.65;;;10.77;;
75542;SDS011;64129;53.508;10.476;2022-11-18T08:01:10;12.45;;;7.60;;
75542;SDS011;64129;53.508;10.476;2022-11-18T08:03:37;13.10;;;7.57;;
75542;SDS011;64129;53.508;10.476;2022-11-18T08:06:05;18.55;;;11.13;;
75542;SDS011;64129;53.508;10.476;2022-11-18T08:08:33;7.40;;;5.78;;
75542;SDS011;64129;53.508;10.476;2022-11-18T08:11:01;14.90;;;8.27;;
75542;SDS011;64129;53.508;10.476;2022-11-18T08:13:31;16.85;;;10.23;;
75542;SDS011;64129;53.508;10.476;2022-11-18T08:15:58;18.70;;;11.18;;
75542;SDS011;64129;53.508;10.476;2022-11-18T08:18:26;16.73;;;10.38;;
75542;SDS011;64129;53.508;10.476;2022-11-18T08:20:54;20.17;;;10.48;;
75542;SDS011;64129;53.508;10.476;2022-11-18T08:23:21;21.38;;;12.45;;
75542;SDS011;64129;53.508;10.476;2022-11-18T08:25:49;17.75;;;10.68;;
75542;SDS011;64129;53.508;10.476;2022-11-18T08:28:15;20.67;;;11.85;;
75542;SDS011;64129;53.508;10.476;2022-11-18T08:30:42;20.05;;;12.13;;
75542;SDS011;64129;53.508;10.476;2022-11-18T08:33:08;16.27;;;10.65;;
75542;SDS011;64129;53.508;10.476;2022-11-18T08:35:35;13.95;;;9.18;;
75542;SDS011;64129;53.508;10.476;2022-11-18T08:38:01;20.13;;;12.07;;
75542;SDS011;64129;53.508;10.476;2022-11-18T08:40:28;11.48;;;7.10;;
75542;SDS011;64129;53.508;10.476;2022-11-18T08:42:54;20.45;;;11.68;;
75542;SDS011;64129;53.508;10.476;2022-11-18T08:45:21;20.30;;;12.30;;
75542;SDS011;64129;53.508;10.476;2022-11-18T08:47:47;16.77;;;9.48;;
75542;SDS011;64129;53.508;10.476;2022-11-18T08:50:14;19.85;;;11.10;;
75542;SDS011;64129;53.508;10.476;2022-11-18T08:52:40;14.65;;;9.10;;
75542;SDS011;64129;53.508;10.476;2022-11-18T08:55:07;21.63;;;12.63;;
75542;SDS011;64129;53.508;10.476;2022-11-18T08:57:33;17.23;;;10.98;;
75542;SDS011;64129;53.508;10.476;2022-11-18T09:00:00;21.27;;;11.73;;
75542;SDS011;64129;53.508;10.476;2022-11-18T09:02:26;20.75;;;12.55;;
75542;SDS011;64129;53.508;10.476;2022-11-18T09:04:53;17.05;;;11.32;;
75542;SDS011;64129;53.508;10.476;2022-11-18T09:07:20;16.58;;;10.85;;
75542;SDS011;64129;53.508;10.476;2022-11-18T09:09:46;18.38;;;10.32;;
75542;SDS011;64129;53.508;10.476;2022-11-18T09:12:13;15.50;;;10.13;;
75542;SDS011;64129;53.508;10.476;2022-11-18T09:14:43;12.35;;;8.38;;
75542;SDS011;64129;53.508;10.476;2022-11-18T09:17:30;17.17;;;10.50;;
75542;SDS011;64129;53.508;10.476;2022-11-18T09:19:56;11.85;;;8.50;;
75542;SDS011;64129;53.508;10.476;2022-11-18T09:22:23;17.63;;;10.93;;
75542;SDS011;64129;53.508;10.476;2022-11-18T09:24:49;18.50;;;10.77;;
75542;SDS011;64129;53.508;10.476;2022-11-18T09:27:16;16.63;;;10.65;;
75542;SDS011;64129;53.508;10.476;2022-11-18T09:29:43;12.93;;;7.82;;
75542;SDS011;64129;53.508;10.476;2022-11-18T09:32:09;16.23;;;10.02;;
75542;SDS011;64129;53.508;10.476;2022-11-18T09:34:36;16.95;;;10.55;;
75542;SDS011;64129;53.508;10.476;2022-11-18T09:37:03;16.42;;;9.15;;
75542;SDS011;64129;53.508;10.476;2022-11-18T09:39:34;10.32;;;7.20;;
75542;SDS011;64129;53.508;10.476;2022-11-18T09:45:09;13.95;;;8.85;;
75542;SDS011;64129;53.508;10.476;2022-11-18T09:47:46;14.90;;;9.05;;
75542;SDS011;64129;53.508;10.476;2022-11-18T09:50:14;13.82;;;9.85;;
75542;SDS011;64129;53.508;10.476;2022-11-18T09:53:20;15.52;;;8.88;;
75542;SDS011;64129;53.508;10.476;2022-11-18T09:55:50;12.57;;;7.30;;
75542;SDS011;64129;53.508;10.476;2022-11-18T09:58:20;13.38;;;7.78;;
75542;SDS011;64129;53.508;10.476;2022-11-18T10:00:50;13.23;;;8.52;;
75542;SDS011;64129;53.508;10.476;2022-11-18T10:03:26;15.68;;;9.82;;
75542;SDS011;64129;53.508;10.476;2022-11-18T10:06:03;16.95;;;9.18;;
75542;SDS011;64129;53.508;10.476;2022-11-18T10:09:07;12.85;;;8.48;;
75542;SDS011;64129;53.508;10.476;2022-11-18T10:14:25;15.73;;;9.05;;
75542;SDS011;64129;53.508;10.476;2022-11-18T10:22:57;9.02;;;5.82;;
75542;SDS011;64129;53.508;10.476;2022-11-18T10:25:25;11.25;;;6.93;;
75542;SDS011;64129;53.508;10.476;2022-11-18T10:27:51;10.10;;;6.82;;
75542;SDS011;64129;53.508;10.476;2022-11-18T10:30:19;7.78;;;5.78;;
75542;SDS011;64129;53.508;10.476;2022-11-18T10:35:27;12.93;;;8.82;;
75542;SDS011;64129;53.508;10.476;2022-11-18T10:38:06;13.35;;;8.77;;
75542;SDS011;64129;53.508;10.476;2022-11-18T10:40:47;13.35;;;7.70;;
75542;SDS011;64129;53.508;10.476;2022-11-18T10:46:27;8.25;;;5.47;;
75542;SDS011;64129;53.508;10.476;2022-11-18T10:49:07;11.43;;;6.82;;
75542;SDS011;64129;53.508;10.476;2022-11-18T10:51:43;6.03;;;4.38;;
75542;SDS011;64129;53.508;10.476;2022-11-18T10:56:44;10.43;;;6.25;;
75542;SDS011;64129;53.508;10.476;2022-11-18T10:59:29;9.35;;;4.93;;
75542;SDS011;64129;53.508;10.476;2022-11-18T11:01:58;12.63;;;6.88;;
75542;SDS011;64129;53.508;10.476;2022-11-18T11:04:28;8.15;;;5.95;;
75542;SDS011;64129;53.508;10.476;2022-11-18T11:06:56;10.75;;;6.38;;
75542;SDS011;64129;53.508;10.476;2022-11-18T11:09:27;8.77;;;5.55;;
75542;SDS011;64129;53.508;10.476;2022-11-18T11:20:11;13.18;;;7.07;;
75542;SDS011;64129;53.508;10.476;2022-11-18T11:22:44;9.20;;;6.28;;
75542;SDS011;64129;53.508;10.476;2022-11-18T11:25:18;10.60;;;6.32;;
75542;SDS011;64129;53.508;10.476;2022-11-18T11:28:28;7.72;;;4.90;;
75542;SDS011;64129;53.508;10.476;2022-11-18T11:34:41;8.23;;;5.65;;
75542;SDS011;64129;53.508;10.476;2022-11-18T11:42:42;10.98;;;6.75;;
75542;SDS011;64129;53.508;10.476;2022-11-18T11:51:04;6.00;;;4.00;;
75542;SDS011;64129;53.508;10.476;2022-11-18T11:56:43;13.23;;;6.47;;
75542;SDS011;64129;53.508;10.476;2022-11-18T12:04:59;9.23;;;5.78;;
75542;SDS011;64129;53.508;10.476;2022-11-18T12:07:37;9.55;;;6.65;;
75542;SDS011;64129;53.508;10.476;2022-11-18T12:18:23;6.60;;;3.95;;
75542;SDS011;64129;53.508;10.476;2022-11-18T12:20:55;10.00;;;5.43;;
75542;SDS011;64129;53.508;10.476;2022-11-18T12:23:23;9.63;;;5.57;;
75542;SDS011;64129;53.508;10.476;2022-11-18T12:26:01;6.38;;;4.22;;
75542;SDS011;64129;53.508;10.476;2022-11-18T12:28:35;6.72;;;4.43;;
75542;SDS011;64129;53.508;10.476;2022-11-18T12:33:52;6.45;;;4.47;;
75542;SDS011;64129;53.508;10.476;2022-11-18T12:36:35;5.63;;;3.60;;
75542;SDS011;64129;53.508;10.476;2022-11-18T12:44:34;5.50;;;3.45;;
75542;SDS011;64129;53.508;10.476;2022-11-18T12:47:02;4.18;;;3.08;;
75542;SDS011;64129;53.508;10.476;2022-11-18T12:51:57;5.68;;;3.80;;
75542;SDS011;64129;53.508;10.476;2022-11-18T12:54:26;4.30;;;2.85;;
75542;SDS011;64129;53.508;10.476;2022-11-18T12:57:03;3.92;;;2.53;;
75542;SDS011;64129;53.508;10.476;2022-11-18T12:59:36;6.78;;;2.53;;
75542;SDS011;64129;53.508;10.476;2022-11-18T13:02:05;3.47;;;3.05;;
75542;SDS011;64129;53.508;10.476;2022-11-18T13:07:43;4.53;;;2.67;;
75542;SDS011;64129;53.508;10.476;2022-11-18T13:10:32;6.38;;;3.33;;
75542;SDS011;64129;53.508;10.476;2022-11-18T13:13:00;6.07;;;3.08;;
75542;SDS011;64129;53.508;10.476;2022-11-18T13:15:27;2.88;;;2.50;;
75542;SDS011;64129;53.508;10.476;2022-11-18T13:18:17;4.03;;;2.70;;
75542;SDS011;64129;53.508;10.476;2022-11-18T13:20:58;3.90;;;3.15;;
75542;SDS011;64129;53.508;10.476;2022-11-18T13:23:45;4.40;;;3.22;;
75542;SDS011;64129;53.508;10.476;2022-11-18T13:26:29;4.28;;;2.60;;
75542;SDS011;64129;53.508;10.476;2022-11-18T13:34:21;4.70;;;2.88;;
75542;SDS011;64129;53.508;10.476;2022-11-18T13:36:53;5.03;;;3.22;;
75542;SDS011;64129;53.508;10.476;2022-11-18T13:39:26;4.18;;;3.15;;
75542;SDS011;64129;53.508;10.476;2022-11-18T13:41:58;4.35;;;3.03;;
75542;SDS011;64129;53.508;10.476;2022-11-18T13:44:31;4.00;;;2.97;;
75542;SDS011;64129;53.508;10.476;2022-11-18T13:49:42;4.20;;;2.72;;
75542;SDS011;64129;53.508;10.476;2022-11-18T13:52:21;6.80;;;3.17;;
75542;SDS011;64129;53.508;10.476;2022-11-18T13:54:51;4.43;;;3.25;;
75542;SDS011;64129;53.508;10.476;2022-11-18T13:57:20;3.53;;;3.22;;
75542;SDS011;64129;53.508;10.476;2022-11-18T13:59:49;4.07;;;2.53;;
75542;SDS011;64129;53.508;10.476;2022-11-18T14:04:51;4.15;;;3.13;;
75542;SDS011;64129;53.508;10.476;2022-11-18T14:07:24;4.90;;;3.20;;
75542;SDS011;64129;53.508;10.476;2022-11-18T14:09:55;3.67;;;3.35;;
75542;SDS011;64129;53.508;10.476;2022-11-18T14:12:25;3.95;;;2.95;;
75542;SDS011;64129;53.508;10.476;2022-11-18T14:17:51;3.45;;;2.28;;
75542;SDS011;64129;53.508;10.476;2022-11-18T14:20:20;3.45;;;3.00;;
75542;SDS011;64129;53.508;10.476;2022-11-18T14:22:48;4.22;;;3.13;;
75542;SDS011;64129;53.508;10.476;2022-11-18T14:25:19;4.82;;;3.05;;
75542;SDS011;64129;53.508;10.476;2022-11-18T14:27:52;4.45;;;2.78;;
75542;SDS011;64129;53.508;10.476;2022-11-18T14:30:37;3.10;;;2.05;;
75542;SDS011;64129;53.508;10.476;2022-11-18T14:35:36;3.10;;;2.22;;
75542;SDS011;64129;53.508;10.476;2022-11-18T14:38:14;3.65;;;2.30;;
75542;SDS011;64129;53.508;10.476;2022-11-18T14:43:30;2.00;;;1.45;;
75542;SDS011;64129;53.508;10.476;2022-11-18T14:45:58;3.55;;;2.10;;
75542;SDS011;64129;53.508;10.476;2022-11-18T14:48:42;2.95;;;2.25;;
75542;SDS011;64129;53.508;10.476;2022-11-18T14:51:15;3.70;;;2.22;;
75542;SDS011;64129;53.508;10.476;2022-11-18T14:53:42;3.42;;;2.58;;
75542;SDS011;64129;53.508;10.476;2022-11-18T14:58:52;3.00;;;1.98;;
75542;SDS011;64129;53.508;10.476;2022-11-18T15:01:19;2.50;;;1.95;;
75542;SDS011;64129;53.508;10.476;2022-11-18T15:03:46;2.42;;;2.22;;
75542;SDS011;64129;53.508;10.476;2022-11-18T15:06:13;2.08;;;1.55;;
75542;SDS011;64129;53.508;10.476;2022-11-18T15:11:08;2.85;;;2.10;;
75542;SDS011;64129;53.508;10.476;2022-11-18T15:13:36;3.13;;;2.15;;
75542;SDS011;64129;53.508;10.476;2022-11-18T15:18:46;3.28;;;2.90;;
75542;SDS011;64129;53.508;10.476;2022-11-18T15:21:15;3.03;;;1.92;;
75542;SDS011;64129;53.508;10.476;2022-11-18T15:23:42;3.53;;;1.95;;
75542;SDS011;64129;53.508;10.476;2022-11-18T15:29:02;2.72;;;2.17;;
75542;SDS011;64129;53.508;10.476;2022-11-18T15:31:29;2.63;;;1.90;;
75542;SDS011;64129;53.508;10.476;2022-11-18T15:33:55;2.88;;;1.98;;
75542;SDS011;64129;53.508;10.476;2022-11-18T15:36:24;2.75;;;2.00;;
75542;SDS011;64129;53.508;10.476;2022-11-18T15:41:20;3.40;;;2.80;;
75542;SDS011;64129;53.508;10.476;2022-11-18T15:43:48;3.83;;;2.60;;
75542;SDS011;64129;53.508;10.476;2022-11-18T15:46:16;3.03;;;2.42;;
75542;SDS011;64129;53.508;10.476;2022-11-18T15:48:49;4.60;;;3.58;;
75542;SDS011;64129;53.508;10.476;2022-11-18T15:51:17;3.60;;;3.30;;
75542;SDS011;64129;53.508;10.476;2022-11-18T15:53:44;6.38;;;3.78;;
75542;SDS011;64129;53.508;10.476;2022-11-18T15:56:14;3.80;;;3.42;;
75542;SDS011;64129;53.508;10.476;2022-11-18T15:58:55;4.50;;;3.20;;
75542;SDS011;64129;53.508;10.476;2022-11-18T16:01:27;5.70;;;4.03;;
75542;SDS011;64129;53.508;10.476;2022-11-18T16:03:55;5.72;;;4.43;;
75542;SDS011;64129;53.508;10.476;2022-11-18T16:06:22;3.97;;;2.95;;
75542;SDS011;64129;53.508;10.476;2022-11-18T16:08:50;3.03;;;2.72;;
75542;SDS011;64129;53.508;10.476;2022-11-18T16:11:19;5.05;;;2.28;;
75542;SDS011;64129;53.508;10.476;2022-11-18T16:14:05;5.07;;;2.28;;
75542;SDS011;64129;53.508;10.476;2022-11-18T16:16:33;2.25;;;1.95;;
75542;SDS011;64129;53.508;10.476;2022-11-18T16:19:02;3.05;;;2.03;;
75542;SDS011;64129;53.508;10.476;2022-11-18T16:21:33;3.67;;;3.30;;
75542;SDS011;64129;53.508;10.476;2022-11-18T16:24:02;4.85;;;3.50;;
75542;SDS011;64129;53.508;10.476;2022-11-18T16:26:32;2.60;;;2.40;;
75542;SDS011;64129;53.508;10.476;2022-11-18T16:28:59;2.85;;;2.60;;
75542;SDS011;64129;53.508;10.476;2022-11-18T16:31:26;3.60;;;2.85;;
75542;SDS011;64129;53.508;10.476;2022-11-18T16:34:05;3.30;;;3.00;;
75542;SDS011;64129;53.508;10.476;2022-11-18T16:36:35;3.70;;;3.22;;
75542;SDS011;64129;53.508;10.476;2022-11-18T16:39:03;4.35;;;3.25;;
75542;SDS011;64129;53.508;10.476;2022-11-18T16:41:34;3.70;;;3.25;;
75542;SDS011;64129;53.508;10.476;2022-11-18T16:44:02;3.20;;;2.92;;
75542;SDS011;64129;53.508;10.476;2022-11-18T16:46:32;4.80;;;3.22;;
75542;SDS011;64129;53.508;10.476;2022-11-18T16:49:00;4.25;;;3.58;;
75542;SDS011;64129;53.508;10.476;2022-11-18T16:51:28;4.38;;;3.20;;
75542;SDS011;64129;53.508;10.476;2022-11-18T16:53:57;5.75;;;3.70;;
75542;SDS011;64129;53.508;10.476;2022-11-18T16:56:26;4.45;;;3.35;;
75542;SDS011;64129;53.508;10.476;2022-11-18T16:58:56;4.30;;;3.90;;
75542;SDS011;64129;53.508;10.476;2022-11-18T17:01:25;5.35;;;4.10;;
75542;SDS011;64129;53.508;10.476;2022-11-18T17:03:54;6.15;;;4.55;;